Time;durP1;ratioP1;P1;durP2;ratioP2;P2;SDS_P1;SDS_P2;PMS_P1;PMS_P2;Temp;Humidity;BMP_temperature;BMP_pressure;BME280_temperature;BME280_humidity;BME280_pressure;Samples;Min_cycle;Max_cycle;Signal;HPM_P1;HPM_P2
2021/09/10 00:00:15;;;;;;;0.40;0.20;;;15.20;1.40;;;16.41;100.00;95387.84;647152;216;32027;-73
2021/09/10 00:02:57;;;;;;;0.40;0.30;;;15.10;1.40;;;16.41;100.00;95389.94;646627;216;31501;-73
2021/09/10 00:05:39;;;;;;;0.40;0.20;;;15.00;1.40;;;16.36;100.00;95386.88;646252;216;32082;-73
2021/09/10 00:08:20;;;;;;;0.40;0.20;;;15.00;1.40;;;16.37;100.00;95386.50;646867;212;31483;-72
2021/09/10 00:11:02;;;;;;;0.40;0.20;;;14.90;1.40;;;16.27;100.00;95391.27;647688;212;31638;-72
2021/09/10 00:13:44;;;;;;;0.40;0.20;;;14.80;1.40;;;16.14;100.00;95387.06;645053;213;32128;-71
2021/09/10 00:16:26;;;;;;;0.40;0.20;;;14.60;1.40;;;16.06;100.00;95386.12;646472;212;32021;-72
2021/09/10 00:19:07;;;;;;;0.40;0.20;;;14.60;1.40;;;16.01;100.00;95384.92;645827;216;32114;-73
2021/09/10 00:21:49;;;;;;;0.40;0.20;;;14.50;1.40;;;15.96;100.00;95379.31;646104;212;32178;-73
2021/09/10 00:24:31;;;;;;;0.40;0.30;;;14.40;1.40;;;15.84;100.00;95379.65;647464;212;32187;-72
2021/09/10 00:27:12;;;;;;;0.40;0.20;;;14.20;1.40;;;15.75;100.00;95378.09;646039;216;32676;-72
2021/09/10 00:29:54;;;;;;;0.40;0.20;;;14.20;1.40;;;15.75;100.00;95381.00;648141;212;31666;-73
2021/09/10 00:35:51;;;;;;;1.00;0.40;;;14.10;1.40;;;15.76;100.00;95378.30;646951;212;31474;-72
2021/09/10 00:38:34;;;;;;;0.40;0.28;;;14.10;1.40;;;15.65;100.00;95378.67;646417;216;31737;-73
2021/09/10 00:41:14;;;;;;;0.40;0.20;;;13.90;1.40;;;15.56;100.00;95378.44;647357;216;31500;-73
2021/09/10 00:43:59;;;;;;;0.40;0.20;;;13.80;1.40;;;15.46;100.00;95379.23;645420;212;31536;-71
2021/09/10 00:46:41;;;;;;;0.40;0.20;;;13.70;1.40;;;15.40;100.00;95379.12;646311;213;32115;-72
2021/09/10 00:49:23;;;;;;;0.40;0.20;;;13.60;1.40;;;15.38;100.00;95379.48;646259;216;31676;-72
2021/09/10 00:52:04;;;;;;;0.40;0.20;;;13.60;1.40;;;15.29;100.00;95381.08;619555;226;31834;-72
2021/09/10 00:54:46;;;;;;;0.40;0.20;;;13.50;1.40;;;15.23;100.00;95386.55;646836;216;31787;-72
2021/09/10 00:57:28;;;;;;;0.80;0.50;;;13.40;1.40;;;15.15;100.00;95384.89;647946;212;42144;-71
2021/09/10 01:00:11;;;;;;;0.40;0.20;;;13.40;1.40;;;15.16;100.00;95387.41;646419;216;31462;-72
2021/09/10 01:02:52;;;;;;;0.30;0.20;;;13.30;1.40;;;15.04;100.00;95387.88;647070;216;31603;-72
2021/09/10 01:05:34;;;;;;;0.40;0.20;;;13.30;1.40;;;15.04;100.00;95391.44;646519;212;31474;-73
2021/09/10 01:08:16;;;;;;;0.40;0.20;;;13.30;1.40;;;15.03;100.00;95385.73;646149;216;31462;-71
2021/09/10 01:10:58;;;;;;;0.40;0.20;;;13.60;1.40;;;15.13;100.00;95385.48;646485;216;31470;-71
2021/09/10 01:13:40;;;;;;;0.40;0.20;;;13.60;1.40;;;15.08;100.00;95391.19;647345;216;31473;-71
2021/09/10 01:16:22;;;;;;;0.40;0.30;;;13.60;1.40;;;15.14;100.00;95388.61;645855;216;32048;-72
2021/09/10 01:19:06;;;;;;;0.50;0.30;;;13.80;1.40;;;15.17;100.00;95386.93;645088;216;31490;-73
2021/09/10 01:21:48;;;;;;;0.40;0.20;;;13.80;1.40;;;15.28;100.00;95391.16;619408;222;31802;-71
2021/09/10 01:24:30;;;;;;;0.40;0.20;;;13.80;1.40;;;15.24;100.00;95390.83;646975;212;31476;-73
2021/09/10 01:27:12;;;;;;;0.40;0.20;;;13.80;1.40;;;15.33;100.00;95395.06;646961;216;32022;-72
2021/09/10 01:29:54;;;;;;;0.40;0.20;;;14.10;1.40;;;15.34;100.00;95396.84;645970;216;31740;-72
2021/09/10 01:32:35;;;;;;;0.40;0.20;;;14.10;1.40;;;15.36;100.00;95399.62;645403;216;31700;-72
2021/09/10 01:35:51;;;;;;;0.40;0.20;;;14.10;1.40;;;15.34;100.00;95401.23;645611;212;31484;-71
2021/09/10 01:38:32;;;;;;;0.40;0.20;;;14.10;1.40;;;15.29;100.00;95401.83;646308;216;31471;-71
2021/09/10 01:41:14;;;;;;;0.40;0.20;;;14.10;1.40;;;15.21;100.00;95398.78;640519;212;31617;-71
2021/09/10 01:43:56;;;;;;;1.20;0.50;;;14.10;1.40;;;15.21;100.00;95399.84;647099;212;31510;-72
2021/09/10 01:46:38;;;;;;;0.40;0.20;;;14.00;1.40;;;15.14;100.00;95401.44;645766;212;31490;-72
2021/09/10 01:49:19;;;;;;;0.40;0.20;;;14.00;1.40;;;15.11;100.00;95405.37;646760;213;31477;-72
2021/09/10 01:52:01;;;;;;;0.40;0.20;;;14.00;1.40;;;15.10;100.00;95403.18;647695;212;31742;-72
2021/09/10 01:54:43;;;;;;;0.40;0.20;;;13.80;1.40;;;15.04;100.00;95400.08;647289;216;31471;-72
2021/09/10 01:57:24;;;;;;;0.40;0.20;;;13.80;1.40;;;15.04;100.00;95402.83;647927;213;31459;-72
2021/09/10 02:00:06;;;;;;;0.40;0.20;;;13.60;1.40;;;14.97;100.00;95409.78;647439;216;32489;-72
2021/09/10 02:02:48;;;;;;;0.40;0.25;;;13.70;1.40;;;14.93;100.00;95404.16;647086;212;31469;-72
2021/09/10 02:05:30;;;;;;;0.40;0.20;;;13.50;1.40;;;14.96;100.00;95394.37;645892;216;31479;-72
2021/09/10 02:08:12;;;;;;;0.40;0.30;;;13.40;1.40;;;14.92;100.00;95398.16;646271;216;42111;-72
2021/09/10 02:10:53;;;;;;;0.40;0.28;;;13.20;1.40;;;14.66;100.00;95396.33;646895;216;42685;-73
2021/09/10 02:13:35;;;;;;;0.57;0.28;;;13.00;1.40;;;14.52;100.00;95398.58;647440;216;31473;-73
2021/09/10 02:16:17;;;;;;;0.70;0.40;;;12.90;1.40;;;14.49;100.00;95401.56;646326;212;31472;-73
2021/09/10 02:21:37;;;;;;;0.60;0.60;;;13.00;1.40;;;14.45;100.00;95387.17;618218;222;31854;-73
2021/09/10 02:24:18;;;;;;;0.50;0.40;;;12.90;1.40;;;14.44;100.00;95382.78;645998;212;31505;-73
2021/09/10 02:26:59;;;;;;;0.40;0.20;;;12.90;1.40;;;14.53;100.00;95384.09;646941;216;42162;-73
2021/09/10 02:29:41;;;;;;;0.80;0.60;;;13.10;1.40;;;14.62;100.00;95384.20;646626;216;34435;-72
2021/09/10 02:32:23;;;;;;;0.40;0.20;;;13.10;1.40;;;14.73;100.00;95387.62;647170;216;42150;-71
2021/09/10 02:35:51;;;;;;;0.60;0.60;;;13.20;1.40;;;14.83;100.00;95381.38;646210;212;32049;-72
2021/09/10 02:38:36;;;;;;;0.40;0.20;;;13.30;1.40;;;14.96;100.00;95380.44;646874;212;42681;-72
2021/09/10 02:41:18;;;;;;;0.40;0.20;;;13.30;1.40;;;15.03;100.00;95379.51;613745;226;31997;-72
2021/09/10 02:44:02;;;;;;;0.40;0.20;;;13.30;1.40;;;14.94;100.00;95379.55;618556;226;42649;-72
2021/09/10 02:46:44;;;;;;;0.40;0.20;;;13.20;1.40;;;14.72;100.00;95383.77;646687;216;42095;-71
2021/09/10 02:49:26;;;;;;;0.50;0.30;;;13.00;1.40;;;14.68;100.00;95377.73;645321;212;31474;-73
2021/09/10 02:52:08;;;;;;;0.40;0.20;;;12.90;1.40;;;14.62;100.00;95381.08;618370;226;31726;-73
2021/09/10 02:54:49;;;;;;;1.00;0.90;;;12.90;1.40;;;14.63;100.00;95383.23;619880;222;42478;-72
2021/09/10 02:57:31;;;;;;;0.40;0.30;;;12.90;1.40;;;14.78;100.00;95383.20;645767;216;42094;-70
2021/09/10 03:00:13;;;;;;;0.40;0.20;;;13.00;1.40;;;14.77;100.00;95383.67;646901;216;39459;-72
2021/09/10 03:05:31;;;;;;;0.40;0.20;;;13.00;1.40;;;14.73;100.00;95387.57;646498;215;31484;-73
2021/09/10 03:08:11;;;;;;;0.40;0.30;;;13.00;1.40;;;14.71;100.00;95387.59;646985;216;42116;-72
2021/09/10 03:10:54;;;;;;;0.40;0.30;;;13.20;1.40;;;14.73;100.00;95386.14;645860;212;42100;-72
2021/09/10 03:13:35;;;;;;;0.40;0.20;;;13.10;1.40;;;14.72;100.00;95381.87;646913;212;42096;-72
2021/09/10 03:16:20;;;;;;;0.40;0.20;;;13.00;1.40;;;14.69;100.00;95383.18;646583;212;34417;-72
2021/09/10 03:19:02;;;;;;;0.40;0.20;;;13.10;1.40;;;14.49;100.00;95384.09;646048;212;32024;-72
2021/09/10 03:21:43;;;;;;;0.40;0.30;;;13.10;1.40;;;14.63;100.00;95385.40;646551;212;32100;-73
2021/09/10 03:24:25;;;;;;;0.40;0.20;;;13.20;1.40;;;14.67;100.00;95383.13;617865;226;43209;-72
2021/09/10 03:27:07;;;;;;;0.40;0.20;;;13.30;1.40;;;14.65;100.00;95379.16;646639;216;42861;-71
2021/09/10 03:31:28;;;;;;;0.40;0.20;;;13.30;1.40;;;14.67;100.00;95376.45;647820;212;31500;-72
2021/09/10 03:35:51;;;;;;;0.40;0.20;;;13.20;1.40;;;14.58;100.00;95379.14;617370;225;31853;-72
2021/09/10 03:38:32;;;;;;;0.40;0.20;;;13.10;1.40;;;14.61;100.00;95380.41;619237;222;42763;-71
2021/09/10 03:41:14;;;;;;;0.40;0.20;;;13.20;1.40;;;14.60;100.00;95377.05;640796;212;36978;-71
2021/09/10 03:43:56;;;;;;;0.40;0.20;;;13.20;1.40;;;14.60;100.00;95373.61;618867;226;32047;-72
2021/09/10 03:46:38;;;;;;;0.40;0.20;;;13.10;1.40;;;14.58;100.00;95373.98;646932;212;36733;-73
2021/09/10 03:49:19;;;;;;;0.40;0.20;;;13.10;1.40;;;14.48;100.00;95372.58;646920;212;31515;-72
2021/09/10 03:52:01;;;;;;;0.40;0.20;;;13.00;1.40;;;14.43;100.00;95375.16;645858;212;42699;-71
2021/09/10 03:54:43;;;;;;;0.40;0.20;;;12.90;1.40;;;14.43;100.00;95374.19;646050;216;32031;-72
2021/09/10 03:57:25;;;;;;;0.40;0.20;;;13.10;1.40;;;14.43;100.00;95371.89;646325;216;31588;-71
2021/09/10 04:00:08;;;;;;;0.40;0.20;;;13.10;1.40;;;14.44;100.00;95370.55;645802;216;41616;-72
2021/09/10 04:05:26;;;;;;;0.40;0.20;;;13.10;1.40;;;14.48;100.00;95364.72;646352;212;32334;-72
2021/09/10 04:08:08;;;;;;;0.40;0.20;;;13.10;1.40;;;14.44;100.00;95363.47;646857;216;31603;-71
2021/09/10 04:10:53;;;;;;;0.40;0.20;;;13.00;1.40;;;14.30;100.00;95364.83;645868;212;42108;-71
2021/09/10 04:13:34;;;;;;;0.40;0.20;;;12.80;1.40;;;14.21;100.00;95363.34;619778;222;33156;-72
2021/09/10 04:16:16;;;;;;;0.40;0.20;;;12.80;1.40;;;14.25;100.00;95368.44;647420;212;31865;-71
2021/09/10 04:19:01;;;;;;;0.40;0.20;;;12.90;1.40;;;14.32;100.00;95366.41;646177;216;31500;-71
2021/09/10 04:21:42;;;;;;;0.40;0.20;;;13.00;1.40;;;14.34;100.00;95368.84;645068;212;37620;-71
2021/09/10 04:24:24;;;;;;;0.40;0.20;;;13.00;1.40;;;14.31;100.00;95366.31;646850;216;31501;-72
2021/09/10 04:27:06;;;;;;;0.40;0.20;;;13.10;1.40;;;14.20;100.00;95371.83;649711;212;37420;-71
2021/09/10 04:29:47;;;;;;;0.40;0.20;;;13.10;1.40;;;14.18;100.00;95374.33;646139;216;32153;-73
2021/09/10 04:32:30;;;;;;;0.40;0.20;;;13.10;1.40;;;14.19;100.00;95366.09;646962;212;41370;-74
2021/09/10 04:35:51;;;;;;;0.40;0.20;;;13.00;1.40;;;14.26;100.00;95366.44;645879;216;31500;-72
2021/09/10 04:38:33;;;;;;;0.40;0.20;;;13.10;1.40;;;14.33;100.00;95365.69;646875;216;32419;-72
2021/09/10 04:41:14;;;;;;;0.40;0.20;;;13.20;1.40;;;14.31;100.00;95365.95;646247;216;31467;-72
2021/09/10 04:43:57;;;;;;;0.40;0.30;;;13.10;1.40;;;14.33;100.00;95367.56;648315;216;32087;-71
2021/09/10 04:46:38;;;;;;;0.40;0.20;;;13.10;1.40;;;14.31;100.00;95366.36;620433;222;37200;-73
2021/09/10 04:49:19;;;;;;;0.40;0.20;;;13.00;1.40;;;14.18;100.00;95370.94;646264;213;31594;-72
2021/09/10 04:52:01;;;;;;;0.40;0.20;;;12.80;1.40;;;14.12;100.00;95374.00;646834;212;39343;-71
2021/09/10 04:54:43;;;;;;;0.40;0.20;;;12.70;1.40;;;14.12;100.00;95371.72;645993;216;31581;-73
2021/09/10 04:57:25;;;;;;;0.40;0.20;;;12.70;1.40;;;14.11;100.00;95368.38;646422;216;37383;-72
2021/09/10 05:00:07;;;;;;;0.40;0.20;;;12.60;1.40;;;14.04;100.00;95367.89;647086;212;31500;-72
2021/09/10 05:02:49;;;;;;;0.40;0.20;;;12.50;1.40;;;13.96;100.00;95364.36;646110;212;42109;-72
2021/09/10 05:05:30;;;;;;;0.40;0.20;;;12.50;1.40;;;13.97;100.00;95364.63;647069;216;35781;-71
2021/09/10 05:08:12;;;;;;;0.40;0.20;;;12.40;1.40;;;14.02;100.00;95366.22;646783;216;31496;-72
2021/09/10 05:10:57;;;;;;;0.40;0.20;;;12.40;1.40;;;14.03;100.00;95363.62;644978;216;36871;-72
2021/09/10 05:13:39;;;;;;;0.40;0.20;;;12.40;1.40;;;14.05;100.00;95364.80;647398;216;31492;-72
2021/09/10 05:16:20;;;;;;;0.40;0.20;;;12.40;1.40;;;14.03;100.00;95368.34;645942;216;32477;-72
2021/09/10 05:19:02;;;;;;;0.40;0.20;;;12.30;1.40;;;14.07;100.00;95370.89;647459;212;36042;-72
2021/09/10 05:21:44;;;;;;;0.40;0.20;;;12.30;1.40;;;14.14;100.00;95370.87;645923;216;31471;-72
2021/09/10 05:24:25;;;;;;;0.40;0.20;;;12.50;1.40;;;14.25;100.00;95376.24;645980;212;31490;-71
2021/09/10 05:27:07;;;;;;;0.40;0.20;;;12.60;1.40;;;14.42;100.00;95376.13;647540;216;37996;-72
2021/09/10 05:29:49;;;;;;;0.40;0.20;;;12.90;1.40;;;14.58;100.00;95377.19;646736;212;31464;-72
2021/09/10 05:32:34;;;;;;;0.40;0.20;;;13.10;1.40;;;14.66;100.00;95379.67;646741;216;41996;-72
2021/09/10 05:35:53;;;;;;;0.40;0.20;;;13.30;1.40;;;14.70;100.00;95383.56;647553;216;31639;-72
2021/09/10 05:38:34;;;;;;;0.40;0.20;;;13.40;1.40;;;14.70;100.00;95383.56;646594;212;42296;-73
2021/09/10 05:41:19;;;;;;;0.40;0.20;;;13.50;1.40;;;14.80;100.00;95382.73;638317;216;42294;-73
2021/09/10 05:44:01;;;;;;;0.40;0.30;;;13.50;1.40;;;14.87;100.00;95385.36;646301;212;42421;-72
2021/09/10 05:46:45;;;;;;;0.40;0.20;;;13.60;1.40;;;14.95;100.00;95388.98;646339;213;42115;-72
2021/09/10 05:49:27;;;;;;;0.40;0.20;;;13.80;1.40;;;15.11;100.00;95389.36;618518;222;32405;-72
2021/09/10 05:52:11;;;;;;;0.40;0.20;;;13.90;1.40;;;15.22;100.00;95390.23;646123;216;31485;-71
2021/09/10 05:54:53;;;;;;;0.40;0.20;;;14.10;1.40;;;15.30;100.00;95395.28;645912;212;42681;-72
2021/09/10 05:57:34;;;;;;;0.40;0.20;;;14.20;1.40;;;15.46;100.00;95390.63;619500;222;43196;-73
2021/09/10 06:00:16;;;;;;;0.40;0.20;;;14.30;1.40;;;15.55;100.00;95391.88;645558;216;31600;-72
2021/09/10 06:02:58;;;;;;;0.40;0.20;;;14.40;1.40;;;15.58;100.00;95393.47;618954;226;31802;-71
2021/09/10 06:05:42;;;;;;;0.40;0.20;;;14.40;1.40;;;15.65;100.00;95395.66;646716;216;31473;-71
2021/09/10 06:08:24;;;;;;;0.40;0.20;;;14.50;1.40;;;15.72;100.00;95390.16;646902;212;31474;-72
2021/09/10 06:11:15;;;;;;;0.40;0.20;;;14.60;1.40;;;15.87;100.00;95395.84;646405;216;31691;-72
2021/09/10 06:13:59;;;;;;;0.40;0.20;;;14.70;1.40;;;15.99;100.00;95391.93;645219;216;31663;-71
2021/09/10 06:16:46;;;;;;;1.40;0.57;;;14.80;1.40;;;16.10;100.00;95398.02;646155;216;31516;-71
2021/09/10 06:19:34;;;;;;;0.40;0.20;;;15.00;1.40;;;16.27;100.00;95400.38;646276;216;31468;-71
2021/09/10 06:22:16;;;;;;;0.40;0.20;;;15.20;1.40;;;16.39;100.00;95396.57;645528;216;31504;-71
2021/09/10 06:24:59;;;;;;;0.40;0.30;;;15.30;1.40;;;16.50;100.00;95394.73;646385;212;31606;-72
2021/09/10 06:27:43;;;;;;;0.40;0.20;;;15.40;1.40;;;16.61;100.00;95398.05;645539;212;31412;-71
2021/09/10 06:30:25;;;;;;;0.50;0.50;;;15.50;1.40;;;16.80;100.00;95398.08;646152;216;31463;-71
2021/09/10 06:35:51;;;;;;;0.50;0.30;;;15.80;1.40;;;17.11;100.00;95401.94;646356;214;31533;-72
2021/09/10 06:38:33;;;;;;;0.40;0.20;;;15.90;1.40;;;17.24;100.00;95403.73;645897;212;31474;-71
2021/09/10 06:41:15;;;;;;;0.40;0.20;;;16.10;1.40;;;17.38;100.00;95396.39;639923;212;31659;-71
2021/09/10 06:43:57;;;;;;;0.40;0.20;;;16.30;1.40;;;17.48;100.00;95403.41;645653;212;31511;-72
2021/09/10 06:46:38;;;;;;;0.40;0.20;;;16.40;1.40;;;17.67;100.00;95402.77;618007;226;31838;-73
2021/09/10 06:49:22;;;;;;;0.40;0.20;;;16.60;1.40;;;17.83;100.00;95396.69;647169;212;31843;-71
2021/09/10 06:52:05;;;;;;;0.40;0.20;;;16.80;1.40;;;18.06;100.00;95397.16;644551;216;31468;-72
2021/09/10 06:54:53;;;;;;;0.40;0.20;;;17.00;1.40;;;18.25;100.00;95398.62;646806;216;31573;-72
2021/09/10 06:57:41;;;;;;;0.40;0.20;;;17.20;1.40;;;18.46;100.00;95399.16;616995;225;31977;-72
2021/09/10 07:00:23;;;;;;;0.40;0.20;;;17.40;1.40;;;18.58;98.97;95397.97;644254;212;31542;-71
2021/09/10 07:03:07;;;;;;;0.40;0.20;;;17.50;1.40;;;-143.44;100.00;122422.95;646585;212;31465;-72
2021/09/10 07:05:48;;;;;;;0.40;0.20;;;17.60;1.40;;;;;;645325;212;31484;-71
2021/09/10 07:08:39;;;;;;;0.40;0.20;;;17.80;1.40;;;;;;646702;216;31519;-71
2021/09/10 07:11:26;;;;;;;0.40;0.20;;;17.80;1.40;;;;;;646187;212;31574;-71
2021/09/10 07:14:07;;;;;;;0.40;0.20;;;17.90;1.40;;;;;;645892;216;32075;-71
2021/09/10 07:16:48;;;;;;;0.40;0.20;;;18.10;1.40;;;;;;647277;212;32016;-72
2021/09/10 07:19:35;;;;;;;0.40;0.20;;;18.20;1.40;;;;;;645704;216;31495;-72
2021/09/10 07:22:18;;;;;;;0.40;0.40;;;18.40;1.40;;;;;;618434;222;31805;-72
2021/09/10 07:24:59;;;;;;;0.40;0.20;;;18.50;1.40;;;;;;630686;221;32212;-72
2021/09/10 07:27:43;;;;;;;0.40;0.20;;;18.70;1.40;;;;;;647055;216;31605;-71
2021/09/10 07:35:56;;;;;;;0.40;0.20;;;18.90;1.40;;;20.40;88.53;95405.11;646090;216;31647;-72
2021/09/10 07:38:44;;;;;;;1.10;0.30;;;19.10;1.40;;;20.27;86.89;95407.19;646229;216;31473;-73
2021/09/10 07:41:26;;;;;;;0.30;0.20;;;19.10;1.40;;;20.30;83.98;95408.03;637878;213;31819;-72
2021/09/10 07:44:09;;;;;;;0.40;0.20;;;19.10;1.40;;;20.43;83.96;95412.93;646507;216;42135;-72
2021/09/10 07:46:52;;;;;;;0.40;0.20;;;19.30;1.40;;;20.63;85.08;95413.27;645216;216;31474;-72
2021/09/10 07:49:34;;;;;;;0.40;0.20;;;19.40;1.40;;;20.87;84.87;95415.19;647235;216;43608;-71
2021/09/10 07:52:21;;;;;;;0.40;0.20;;;19.50;1.40;;;21.03;84.33;95417.22;646952;216;31477;-73
2021/09/10 07:55:03;;;;;;;0.40;0.20;;;19.60;1.40;;;21.12;83.56;95411.70;643636;216;31475;-72
2021/09/10 07:57:51;;;;;;;0.40;0.20;;;19.80;1.40;;;21.31;82.53;95408.27;647192;212;42105;-72
2021/09/10 08:00:40;;;;;;;0.40;0.20;;;20.00;1.40;;;21.37;81.41;95411.64;645705;212;31478;-73
2021/09/10 08:03:27;;;;;;;0.40;0.20;;;20.00;1.40;;;21.28;79.11;95411.85;646693;216;32317;-72
2021/09/10 08:06:08;;;;;;;0.40;0.20;;;20.10;1.40;;;21.54;78.12;95408.04;646076;212;33426;-72
2021/09/10 08:08:55;;;;;;;0.40;0.20;;;20.20;1.40;;;21.58;77.74;95416.22;645739;212;42155;-72
2021/09/10 08:11:43;;;;;;;0.40;0.20;;;20.20;1.40;;;21.73;79.07;95412.14;646351;216;32014;-73
2021/09/10 08:14:25;;;;;;;0.40;0.20;;;20.40;1.40;;;21.70;78.56;95412.14;646690;216;32106;-72
2021/09/10 08:17:12;;;;;;;0.40;0.20;;;20.40;1.40;;;21.89;78.57;95420.05;645686;216;32649;-73
2021/09/10 08:19:56;;;;;;;0.40;0.20;;;20.60;1.40;;;22.06;76.02;95427.42;645574;215;31576;-72
2021/09/10 08:22:40;;;;;;;0.40;0.20;;;20.60;1.40;;;21.98;76.27;95431.77;647252;216;32419;-73
2021/09/10 08:25:27;;;;;;;0.40;0.20;;;20.70;1.40;;;22.15;75.15;95436.98;646652;216;31480;-71
2021/09/10 08:28:14;;;;;;;0.40;0.20;;;20.80;1.40;;;22.25;76.09;95435.86;646517;216;31518;-73
2021/09/10 08:30:59;;;;;;;0.40;0.20;;;20.90;1.40;;;22.41;74.85;95434.33;646200;212;31600;-72
2021/09/10 08:35:53;;;;;;;0.40;0.30;;;21.20;1.40;;;-143.44;100.00;122422.95;646263;212;31721;-73
2021/09/10 08:38:36;;;;;;;0.40;0.20;;;21.40;1.40;;;;;;645772;216;31483;-72
2021/09/10 08:41:23;;;;;;;0.40;0.20;;;21.50;1.40;;;;;;640463;216;31626;-72
2021/09/10 08:44:07;;;;;;;0.40;0.20;;;21.60;1.40;;;;;;646612;212;31740;-72
2021/09/10 08:46:48;;;;;;;0.40;0.20;;;21.80;1.40;;;;;;646079;216;31603;-72
2021/09/10 08:49:33;;;;;;;0.40;0.20;;;22.10;1.40;;;;;;644287;212;31457;-73
2021/09/10 08:52:15;;;;;;;0.40;0.20;;;22.20;1.40;;;;;;646085;216;31544;-71
2021/09/10 08:55:02;;;;;;;0.50;0.30;;;22.50;1.40;;;;;;645250;216;31528;-71
2021/09/10 08:57:46;;;;;;;0.40;0.20;;;22.30;1.40;;;;;;647397;216;31490;-73
2021/09/10 09:00:30;;;;;;;0.40;0.20;;;24.60;1.40;;;;;;647151;212;31580;-73
2021/09/10 09:03:11;;;;;;;0.40;0.20;;;27.80;1.40;;;;;;645884;212;31707;-73
2021/09/10 09:05:58;;;;;;;0.40;0.20;;;28.70;1.40;;;;;;646823;212;31570;-72
2021/09/10 09:08:45;;;;;;;0.40;0.20;;;29.70;1.40;;;;;;646579;212;31588;-73
2021/09/10 09:11:26;;;;;;;0.40;0.20;;;30.30;1.40;;;;;;645990;216;31599;-74
2021/09/10 09:14:13;;;;;;;0.40;0.20;;;30.90;1.40;;;;;;646575;212;37137;-73
2021/09/10 09:17:01;;;;;;;0.40;0.20;;;31.00;1.40;;;;;;646713;216;32355;-73
2021/09/10 09:19:48;;;;;;;0.40;0.20;;;31.60;1.40;;;;;;647570;212;31693;-73
2021/09/10 09:22:33;;;;;;;0.40;0.20;;;31.30;1.40;;;;;;646712;212;31523;-73
2021/09/10 09:25:14;;;;;;;0.40;0.20;;;29.50;1.40;;;;;;645939;212;42396;-74
2021/09/10 09:28:13;;;;;;;0.40;0.20;;;29.70;1.40;;;;;;647577;216;31490;-73
2021/09/10 09:30:55;;;;;;;0.40;0.20;;;29.40;1.40;;;;;;646936;216;31604;-73
2021/09/10 09:35:59;;;;;;;0.40;0.20;;;30.50;1.40;;;-143.44;100.00;122422.95;640461;217;31532;-73
2021/09/10 09:38:45;;;;;;;0.40;0.20;;;32.10;1.40;;;;;;646299;216;31854;-72
2021/09/10 09:44:14;;;;;;;0.40;0.20;;;31.60;1.40;;;;;;647067;216;31507;-74
2021/09/10 09:47:01;;;;;;;0.40;0.20;;;32.00;1.40;;;;;;618463;222;31840;-73
2021/09/10 09:49:48;;;;;;;0.40;0.20;;;32.90;1.40;;;;;;645618;216;42321;-73
2021/09/10 09:52:29;;;;;;;0.40;0.20;;;32.90;1.40;;;;;;646018;216;31579;-74
2021/09/10 09:55:12;;;;;;;0.50;0.30;;;32.90;1.40;;;;;;646969;216;31897;-73
2021/09/10 09:57:54;;;;;;;0.40;0.20;;;33.00;1.40;;;;;;646854;216;31528;-73
2021/09/10 10:00:36;;;;;;;0.40;0.20;;;32.10;1.40;;;;;;647434;212;31605;-74
2021/09/10 10:03:19;;;;;;;0.40;0.20;;;33.50;1.40;;;;;;645725;212;31543;-73
2021/09/10 10:06:16;;;;;;;0.40;0.20;;;33.10;1.40;;;;;;646215;212;31496;-73
2021/09/10 10:09:03;;;;;;;0.40;0.20;;;33.20;1.40;;;;;;645915;216;31488;-74
2021/09/10 10:11:44;;;;;;;0.40;0.20;;;33.20;1.40;;;;;;646410;212;31510;-74
2021/09/10 10:14:31;;;;;;;0.40;0.20;;;33.70;1.40;;;;;;646074;216;31610;-75
2021/09/10 10:17:37;;;;;;;0.40;0.20;;;33.50;1.40;;;;;;646293;216;31495;-74
2021/09/10 10:20:35;;;;;;;0.40;0.20;;;33.10;1.40;;;;;;632467;217;31671;-74
2021/09/10 10:23:46;;;;;;;0.40;0.20;;;31.50;1.40;;;;;;645891;216;32103;-73
2021/09/10 10:26:32;;;;;;;0.40;0.20;;;29.80;1.40;;;;;;646618;212;31550;-73
2021/09/10 10:29:14;;;;;;;0.40;0.20;;;30.90;1.40;;;;;;647595;216;31908;-73
2021/09/10 10:32:06;;;;;;;0.40;0.20;;;31.20;1.40;;;;;;646529;216;32785;-72
2021/09/10 10:35:51;;;;;;;0.40;0.20;;;33.40;1.40;;;39.06;30.78;95397.50;646708;213;31545;-74
2021/09/10 10:38:32;;;;;;;0.40;0.20;;;34.30;1.40;;;39.18;29.63;95397.98;645507;212;31492;-73
2021/09/10 10:43:57;;;;;;;0.40;0.20;;;30.70;1.40;;;35.61;34.97;95402.17;645437;212;31479;-73
2021/09/10 10:46:38;;;;;;;0.40;0.20;;;29.10;1.40;;;34.39;36.28;95401.23;646874;216;31487;-73
2021/09/10 10:49:30;;;;;;;0.40;0.20;;;28.40;1.40;;;34.16;35.62;95399.03;647569;212;31474;-74
2021/09/10 10:52:40;;;;;;;1.60;0.40;;;28.40;1.40;;;33.48;36.48;95397.50;646480;216;31477;-72
2021/09/10 10:55:40;;;;;;;0.40;0.20;;;27.70;1.40;;;32.62;39.43;95395.24;618156;222;42478;-73
2021/09/10 10:58:22;;;;;;;0.40;0.20;;;27.90;1.40;;;32.21;38.69;95397.59;646589;216;31488;-74
2021/09/10 11:01:03;;;;;;;0.40;0.20;;;28.00;1.40;;;32.47;37.51;95392.95;647530;216;31958;-73
2021/09/10 11:03:49;;;;;;;0.40;0.20;;;28.20;1.40;;;33.24;36.37;95388.48;647058;212;31513;-73
2021/09/10 11:06:30;;;;;;;0.40;0.20;;;28.60;1.40;;;32.00;38.37;95390.25;618647;226;42636;-73
2021/09/10 11:09:12;;;;;;;0.40;0.20;;;28.20;1.40;;;30.82;41.39;95392.90;646140;212;31698;-73
2021/09/10 11:11:55;;;;;;;0.40;0.20;;;27.60;1.40;;;30.90;40.84;95391.83;646968;216;31492;-72
2021/09/10 11:14:41;;;;;;;0.40;0.20;;;27.50;1.40;;;31.10;39.28;95390.25;646937;216;31483;-72
2021/09/10 11:17:25;;;;;;;0.40;0.20;;;27.20;1.40;;;27.91;45.69;95391.88;646619;216;31616;-72
2021/09/10 11:20:04;;;;;;;0.40;0.20;;;25.50;1.40;;;28.86;44.29;95381.66;646645;212;31564;-72
2021/09/10 11:22:47;;;;;;;0.40;0.20;;;25.70;1.40;;;28.98;44.57;95375.19;645944;213;32073;-73
2021/09/10 11:25:32;;;;;;;0.40;0.20;;;26.50;1.40;;;30.83;41.99;95372.34;645577;212;31473;-75
2021/09/10 11:28:15;;;;;;;0.40;0.20;;;29.40;1.40;;;34.44;36.70;95368.85;647311;212;31618;-72
2021/09/10 11:30:57;;;;;;;0.40;0.20;;;32.40;1.40;;;-143.44;100.00;122422.95;646162;216;31655;-72
2021/09/10 11:35:51;;;;;;;0.40;0.20;;;34.00;1.40;;;39.45;28.54;95364.72;646680;216;31981;-73
2021/09/10 11:38:33;;;;;;;0.40;0.20;;;34.00;1.40;;;36.43;31.99;95370.20;618085;222;31837;-73
2021/09/10 11:41:14;;;;;;;0.40;0.20;;;31.90;1.40;;;33.83;35.23;95369.47;639832;212;42580;-73
2021/09/10 11:43:56;;;;;;;0.40;0.20;;;30.10;1.40;;;33.98;35.36;95364.81;647296;216;31498;-73
2021/09/10 11:46:37;;;;;;;0.40;0.20;;;30.40;1.40;;;36.63;33.38;95357.63;646746;216;31504;-73
2021/09/10 11:49:19;;;;;;;0.40;0.20;;;32.20;1.40;;;38.06;29.87;95357.77;619960;226;31828;-73
2021/09/10 11:52:01;;;;;;;0.40;0.20;;;32.90;1.40;;;38.19;31.58;95352.51;646773;212;31689;-72
2021/09/10 11:54:43;;;;;;;0.40;0.20;;;33.30;1.40;;;40.15;28.29;95350.42;646513;212;31501;-73
2021/09/10 11:57:24;;;;;;;0.40;0.20;;;33.50;1.40;;;36.86;30.93;95356.05;646501;212;31711;-72
2021/09/10 12:00:08;;;;;;;0.40;0.20;;;32.50;1.40;;;35.86;33.04;95359.59;646535;216;31488;-73
2021/09/10 12:02:56;;;;;;;0.40;0.20;;;31.90;1.40;;;38.88;29.53;95354.73;646712;212;31800;-73
2021/09/10 12:05:38;;;;;;;0.40;0.20;;;33.50;1.40;;;36.53;31.97;95354.80;647398;212;35364;-72
2021/09/10 12:08:20;;;;;;;0.40;0.20;;;32.80;1.40;;;37.54;30.74;95352.41;645736;212;31603;-72
2021/09/10 12:11:02;;;;;;;0.40;0.20;;;32.50;1.40;;;36.04;31.76;95349.33;645696;216;31684;-73
2021/09/10 12:13:43;;;;;;;0.40;0.20;;;32.00;1.40;;;39.85;27.81;95345.24;647185;216;31588;-72
2021/09/10 12:16:25;;;;;;;0.40;0.20;;;33.20;1.40;;;-143.44;100.00;122422.95;646863;216;32113;-73
2021/09/10 12:19:06;;;;;;;0.40;0.20;;;34.50;1.40;;;;;;645733;212;42141;-73
2021/09/10 12:21:47;;;;;;;0.50;0.30;;;32.70;1.40;;;;;;646607;216;31526;-73
2021/09/10 12:24:28;;;;;;;0.40;0.20;;;30.30;1.40;;;;;;645651;216;31533;-73
2021/09/10 12:27:12;;;;;;;0.40;0.20;;;29.50;1.40;;;;;;646860;216;31857;-74
2021/09/10 12:30:28;;;;;;;0.40;0.20;;;31.60;1.40;;;;;;646851;216;31533;-73
2021/09/10 12:35:51;;;;;;;0.40;0.20;;;33.00;1.40;;;39.95;27.59;95339.51;647421;216;31531;-73
2021/09/10 12:38:36;;;;;;;0.40;0.20;;;34.10;1.40;;;38.34;29.78;95335.36;619933;222;32035;-73